ADDS METAR Data INFO
IDs: Format: Raw Decoded Include TAF

Data at: 0807 UTC 23 Jul 2018

KAVC 221850Z AUTO 16005KT 10SM SCT028 BKN036 BKN050 29/23 A2982 RMK AO2 LTG DSNT E T02870227
KAVC 221835Z AUTO 18004KT 10SM SCT028 BKN037 BKN050 28/23 A2983 RMK AO2 T02830230
KAVC 221815Z AUTO 16004KT 10SM BKN028 BKN034 OVC050 27/23 A2984 RMK AO2 T02740229
KAVC 221755Z AUTO 19004KT 10SM SCT024 BKN033 BKN041 27/23 A2984 RMK AO2 60013 T02730226 10275 20197
KAVC 221735Z AUTO 17008KT 10SM BKN024 BKN031 BKN037 27/23 A2985 RMK AO2 T02670226
KAVC 221715Z AUTO 00000KT 10SM SCT019 SCT023 OVC031 25/22 A2986 RMK AO2 T02530220
KAVC 221655Z AUTO 16003KT 10SM SCT017 BKN031 OVC040 25/22 A2987 RMK AO2 T02510220
KAVC 221635Z AUTO 20003KT 10SM SCT014 SCT020 OVC040 25/22 A2987 RMK AO2 LTG DSNT W T02480220
KAVC 221615Z AUTO 12004KT 10SM SCT010 BKN036 BKN044 24/22 A2987 RMK AO2 LTG DSNT W T02420222
KAVC 221555Z AUTO 16003KT 10SM SCT010 BKN044 23/22 A2987 RMK AO2 P0001 T02320218
KAVC 221535Z AUTO 00000KT 10SM BKN008 OVC044 23/22 A2987 RMK AO2 LTG DSNT W T02250218
KAVC 221515Z AUTO 00000KT 10SM BKN006 OVC050 22/22 A2987 RMK AO2 T02160216
KAVC 221455Z AUTO 00000KT 10SM OVC006 21/21 A2987 RMK AO2 60012 T02130213
KAVC 221435Z AUTO 14003KT 10SM OVC006 21/21 A2986 RMK AO2 T02100210
KAVC 221415Z AUTO 00000KT 10SM OVC006 21/21 A2985 RMK AO2 T02100210
KAVC 221355Z AUTO 16003KT 10SM OVC004 21/21 A2986 RMK AO2 T02080208
KAVC 221335Z AUTO 00000KT 10SM OVC002 21/21 A2985 RMK AO2 T02050205
KAVC 221315Z AUTO 00000KT 10SM OVC002 20/20 A2984 RMK AO2 LTG DSNT E T02020202
KAVC 221255Z AUTO 04003KT 10SM SCT002 BKN028 OVC110 20/20 A2983 RMK AO2 P0012 T02010201
KAVC 221235Z AUTO 05003KT 7SM BKN110 20/20 A2983 RMK AO2 LTG DSNT E P0012 T01970197
KAVC 221215Z AUTO 15004KT 2 1/2SM OVC100 20/20 A2984 RMK AO2 VIS 1 1/2V4 LTG DSNT SE P0009 T01970197
KAVC 221155Z AUTO 16004KT 5SM SCT095 BKN110 20/20 A2985 RMK AO2 LTG DSNT SE P0006 60008 70009 T01990199 10201 20184
KAVC 221135Z AUTO 16004KT 10SM SCT041 SCT060 BKN110 20/20 A2984 RMK AO2 LTG DSNT S P0001 T02000200
KAVC 221115Z AUTO 17004KT 10SM SCT003 OVC039 20/20 A2984 RMK AO2 LTG DSNT S T02000200
KAVC 221055Z AUTO 16005KT 10SM SCT003 OVC037 20/20 A2984 RMK AO2 LTG DSNT S T01990199
KAVC 221035Z AUTO 15004KT 10SM BKN003 OVC043 20/20 A2982 RMK AO2 T01950195
KAVC 221015Z AUTO 16004KT 10SM SCT003 SCT043 19/19 A2982 RMK AO2 LTG DSNT S T01900190
KAVC 220955Z AUTO 16003KT 10SM CLR 19/19 A2981 RMK AO2 T01900190
KAVC 220935Z AUTO 15004KT 10SM SCT120 19/19 A2980 RMK AO2 LTG DSNT SW T01900190
KAVC 220915Z AUTO 13004KT 10SM SCT120 19/19 A2980 RMK AO2 T01900190
KAVC 220855Z AUTO 00000KT 10SM CLR 19/19 A2979 RMK AO2 LTG DSNT S 60002 T01900190
KAVC 220835Z AUTO 11003KT 10SM CLR 19/19 A2979 RMK AO2 T01860186
KAVC 220815Z AUTO 00000KT 10SM CLR 19/19 A2979 RMK AO2 T01850185
KAVC 220755Z AUTO 00000KT 10SM CLR 19/19 A2980 RMK AO2 T01860186
KAVC 220735Z AUTO 08003KT 10SM SCT039 SCT049 BKN120 19/19 A2982 RMK AO2 T01880188
KAVC 220715Z AUTO 08003KT 10SM SCT027 BKN039 OVC110 19/19 A2984 RMK AO2 LTG DSNT N T01880188
KAVC 220655Z AUTO 00000KT 10SM TS BKN019 BKN028 OVC036 19/19 A2986 RMK AO2 LTG DSNT N P0002 T01900190
KAVC 220635Z AUTO 27004KT 7SM SCT021 OVC030 19/19 A2987 RMK AO2 LTG DSNT NW P0002 T01890189
KAVC 220615Z AUTO 00000KT 10SM BKN032 BKN047 OVC055 19/19 A2984 RMK AO2 LTG DSNT W T01860186
KAVC 220555Z AUTO 00000KT 10SM SCT060 BKN070 19/19 A2983 RMK AO2 T01850185 10236 20171
KAVC 220535Z AUTO 00000KT 10SM CLR 18/18 A2984 RMK AO2 T01780178
KAVC 220515Z AUTO 16003KT 10SM CLR 18/18 A2983 RMK AO2 LTG DSNT W T01810181
KAVC 220455Z AUTO 00000KT 10SM CLR 17/17 A2982 RMK AO2 T01710171 402430171
KAVC 220435Z AUTO 00000KT 10SM CLR 17/17 A2982 RMK AO2 LTG DSNT W T01720172
KAVC 220415Z AUTO 00000KT 10SM CLR 19/19 A2982 RMK AO2 T01850185
KAVC 220355Z AUTO 00000KT 10SM CLR 18/18 A2983 RMK AO2 T01780178
KAVC 220335Z AUTO 00000KT 10SM CLR 18/18 A2983 RMK AO2 T01820182
KAVC 220315Z AUTO 36003KT 10SM CLR 20/20 A2983 RMK AO2 LTG DSNT W T01950195
KAVC 220255Z AUTO 00000KT 10SM CLR 19/19 A2984 RMK AO2 T01900190
KAVC 220235Z AUTO 00000KT 10SM CLR 19/19 A2984 RMK AO2 T01920192
KAVC 220215Z AUTO 00000KT 10SM CLR 19/19 A2984 RMK AO2 T01870187
KAVC 220155Z AUTO 00000KT 10SM CLR 20/20 A2984 RMK AO2 T01970197
KAVC 220135Z AUTO 00000KT 10SM CLR 20/20 A2984 RMK AO2 T02020202
KAVC 220115Z AUTO 00000KT 10SM CLR 21/21 A2983 RMK AO2 T02060205
KAVC 220055Z AUTO 00000KT 10SM CLR 22/21 A2983 RMK AO2 T02160206
KAVC 220035Z AUTO 00000KT 10SM SCT026 23/21 A2983 RMK AO2 LTG DSNT W T02250206
KAVC 220015Z AUTO 00000KT 10SM OVC026 23/21 A2983 RMK AO2 T02320210
KAVC 212355Z AUTO 33003KT 10SM OVC028 24/21 A2983 RMK AO2 60001 T02350213 10243 20211
KAVC 212335Z AUTO 35004KT 10SM BKN028 24/21 A2982 RMK AO2 T02370212
KAVC 212315Z AUTO 00000KT 10SM CLR 23/21 A2982 RMK AO2 LTG DSNT W T02340211
KAVC 212255Z AUTO 33003KT 10SM CLR 23/21 A2981 RMK AO2 T02340211
KAVC 212235Z AUTO 36008KT 10SM SCT020 SCT027 24/21 A2980 RMK AO2 LTG DSNT W T02370210
KAVC 212215Z AUTO 35011KT 10SM SCT020 SCT027 24/21 A2980 RMK AO2 T02420211
KAVC 212155Z AUTO 34010KT 10SM BKN020 BKN026 BKN035 24/21 A2981 RMK AO2 T02390212
KAVC 212135Z AUTO 36006KT 10SM BKN018 BKN025 OVC033 23/21 A2982 RMK AO2 T02290211
KAVC 212115Z AUTO 33008KT 10SM OVC020 23/21 A2982 RMK AO2 T02300210
KAVC 212055Z AUTO 34009KT 10SM OVC017 23/21 A2982 RMK AO2 60001 T02290210
KAVC 212035Z AUTO 34010G14KT 10SM OVC017 23/21 A2982 RMK AO2 T02340210
KAVC 212015Z AUTO 34011G18KT 10SM OVC015 24/22 A2982 RMK AO2 T02390215